Latest Weather Observations for Jacup

IDW60801

Issued at 8:35 am WST Saturday 29 November 2014 (issued every 30 minutes, with the page automatically refreshed every 10 minutes)

About weather observations | Map of weather stations | Latest weather observations for WA | Other Formats
Station Details ID: 010905 Name: JACUP Lat: -33.89 Lon: 119.11 Height: 305.0 m
Data from the previous 72 hours. | See also: Recent months at Jacup
Date/Time
WST
Temp
°C
App
Temp
°C
Dew
Point
Rel
Hum
%
Delta-T
°C
Wind Press
QNH
hPa
Press
MSL
hPa
Rain
since 9 am
mm
Dir
 
Spd
km/h
Gust
km/h
Spd
kts
Gust
kts
29/08:30am 17.1 15.9 15.1 88 1.2 S 15 22 8 12 1013.7 1013.0 1.0
29/08:00am 15.9 13.8 14.6 92 0.8 SSW 19 28 10 15 1013.7 1013.0 1.0
29/07:30am 16.4 15.3 15.4 94 0.6 SSW 15 20 8 11 1013.5 1012.8 1.0
29/07:00am 15.8 14.7 15.2 96 0.4 SSW 15 26 8 14 1013.3 1012.6 1.0
29/06:30am 15.5 13.8 14.7 95 0.5 SSW 17 26 9 14 1013.0 1012.3 0.6
29/06:00am 16.0 14.6 14.4 90 0.9 WSW 15 20 8 11 1012.7 1012.0 0.2
29/05:30am 15.8 15.2 14.5 92 0.8 W 11 15 6 8 1012.5 1011.8 0.2
29/05:00am 15.7 15.0 14.2 91 0.9 W 11 15 6 8 1012.3 1011.6 0.2
29/04:30am 15.9 15.2 14.4 91 0.9 W 11 17 6 9 1012.2 1011.5 0.2
29/04:00am 15.9 15.2 14.4 91 0.9 W 11 15 6 8 1011.8 1011.0 0.2
29/03:30am 16.1 15.1 14.6 91 0.9 WSW 13 19 7 10 1011.7 1010.9 0.2
29/03:00am 16.1 15.1 14.6 91 0.9 SW 13 19 7 10 1011.6 1010.8 0.2
29/02:30am 16.2 15.2 14.7 91 0.9 SW 13 19 7 10 1011.4 1010.6 0.2
29/02:00am 16.3 15.4 14.8 91 0.9 SW 13 19 7 10 1011.3 1010.5 0.2
29/01:30am 16.4 16.4 15.1 92 0.8 SSW 9 17 5 9 1011.4 1010.6 0.2
29/01:00am 16.4 15.6 15.1 92 0.8 S 13 19 7 10 1011.4 1010.6 0.2
29/12:30am 16.4 16.0 15.3 93 0.6 S 11 20 6 11 1011.5 1010.7 0.2
29/12:00am 16.6 15.9 15.3 92 0.8 SSW 13 20 7 11 1011.8 1011.0 0.2
 
Date/Time
WST
Temp
°C
App
Temp
°C
Dew
Point
Rel
Hum
%
Delta-T
°C
Wind Press
QNH
hPa
Press
MSL
hPa
Rain
since 9 am
mm
Dir
 
Spd
km/h
Gust
km/h
Spd
kts
Gust
kts
28/11:30pm 16.9 17.4 15.6 92 0.8 SSW 7 9 4 5 1011.9 1011.1 0.0
28/11:00pm 17.0 17.5 15.5 91 0.9 S 7 11 4 6 1012.0 1011.3 0.0
28/10:30pm 17.0 17.1 15.5 91 0.9 S 9 15 5 8 1012.1 1011.4 0.0
28/10:00pm 16.9 16.9 15.1 89 1.1 S 9 15 5 8 1012.1 1011.4 0.0
28/09:30pm 16.9 16.4 14.9 88 1.2 SSE 11 15 6 8 1012.2 1011.5 0.0
28/09:00pm 16.7 15.8 14.9 89 1.1 SE 13 19 7 10 1012.2 1011.5 0.0
28/08:30pm 16.5 16.3 14.7 89 1.0 SE 9 13 5 7 1012.1 1011.4 0.0
28/08:00pm 16.9 15.9 14.5 86 1.4 SE 13 20 7 11 1011.9 1011.1 0.0
28/07:30pm 17.9 17.1 15.0 83 1.7 SSE 13 17 7 9 1011.4 1010.6 0.0
28/07:00pm 19.0 18.5 13.8 72 3.0 SSW 9 11 5 6 1010.8 1010.0 0.0
28/06:30pm 20.5 19.5 14.6 69 3.5 SSW 13 20 7 11 1010.0 1009.3 0.0
28/06:00pm 21.5 20.7 15.1 67 3.8 SSW 13 17 7 9 1009.8 1009.1 0.0
28/05:30pm 21.1 20.0 15.2 69 3.5 S 15 20 8 11 1009.6 1008.9 0.0
28/05:00pm 21.5 21.0 15.8 70 3.5 SSW 13 20 7 11 1009.6 1008.9 0.0
28/04:30pm 21.5 19.7 14.4 64 4.2 SW 17 24 9 13 1009.3 1008.6 0.0
28/04:00pm 21.2 18.3 12.9 59 4.8 S 20 28 11 15 1008.9 1008.1 0.0
28/03:30pm 23.3 21.5 12.0 49 6.5 SSW 13 19 7 10 1008.7 1007.9 0.0
28/03:00pm 21.7 18.5 11.4 52 5.8 S 19 22 10 12 1009.2 1008.5 0.0
28/02:30pm 21.2 18.0 11.8 55 5.3 SSW 20 33 11 18 1008.8 1008.0 0.0
28/02:09pm 22.4 18.4 15.3 64 4.3 SSW 30 48 16 26 1008.9 1008.1 0.0
28/02:00pm 23.0 20.8 16.8 68 3.9 SSW 24 35 13 19 1008.7 1007.9 0.0
28/01:30pm 24.2 22.3 13.1 50 6.5 SW 15 22 8 12 1008.7 1007.9 0.0
28/01:00pm 25.7 24.7 13.5 46 7.3 SW 11 17 6 9 1008.5 1007.7 0.0
28/12:30pm 25.4 24.0 14.5 51 6.6 SW 15 28 8 15 1008.9 1008.1 0.0
28/12:00pm 25.0 24.1 12.6 46 7.3 E 9 13 5 7 1008.9 1008.1 0.0
28/11:30am 24.5 23.6 13.7 51 6.4 E 11 19 6 10 1009.0 1008.2 0.0
28/11:00am 23.5 23.0 14.8 58 5.2 E 11 20 6 11 1008.7 1007.9 0.0
28/10:30am 22.5 24.0 14.6 61 4.7 CALM 0 4 0 2 1010.6 1009.8 0.0
28/10:00am 21.7 20.2 15.3 67 3.9 W 17 24 9 13 1011.1 1010.3 0.0
28/09:30am 22.4 22.4 16.2 68 3.8 W 11 20 6 11 1011.0 1010.2 0.0
28/09:00am 20.9 21.2 17.1 79 2.4 WSW 11 20 6 11 1011.0 1010.2 8.2
28/08:30am 19.0 20.0 16.4 85 1.6 E 6 11 3 6 1011.0 1010.2 8.2
28/08:00am 17.8 16.0 16.1 90 1.0 ENE 20 30 11 16 1009.0 1008.2 8.2
28/07:30am 17.5 18.4 16.7 95 0.5 WNW 7 11 4 6 1010.3 1009.6 8.2
28/07:00am 16.9 17.0 16.4 97 0.3 W 11 15 6 8 1010.7 1009.9 8.2
28/06:30am 16.2 16.4 15.7 97 0.3 SW 9 17 5 9 1010.6 1009.8 8.2
28/06:00am 15.8 15.4 15.3 97 0.3 SSW 11 13 6 7 1009.9 1009.2 8.2
28/05:30am 15.5 17.1 14.9 96 0.3 CALM 0 4 0 2 1009.5 1008.8 8.2
28/05:00am 15.3 16.8 14.7 96 0.3 CALM 0 0 0 0 1009.1 1008.3 8.2
28/04:30am 15.6 17.2 15.0 96 0.4 CALM 0 0 0 0 1009.4 1008.7 8.2
28/04:00am 15.7 17.4 15.1 96 0.4 CALM 0 0 0 0 1009.4 1008.7 8.2
28/03:30am 16.1 16.8 15.5 96 0.4 NNE 6 9 3 5 1009.1 1008.3 8.2
28/03:00am 16.3 16.5 15.7 96 0.4 NE 9 11 5 6 1009.4 1008.7 8.2
28/02:30am 16.3 15.7 15.7 96 0.4 E 13 15 7 8 1009.2 1008.5 8.2
28/02:00am 16.4 15.9 15.9 97 0.3 E 13 19 7 10 1009.5 1008.8 8.2
28/01:30am 16.3 15.0 15.8 97 0.3 E 17 26 9 14 1009.9 1009.2 8.2
28/01:00am 16.4 15.1 15.9 97 0.3 ESE 17 24 9 13 1010.3 1009.6 8.2
28/12:30am 16.3 15.0 15.8 97 0.3 ESE 17 22 9 12 1010.9 1010.1 8.2
28/12:00am 16.2 15.2 15.7 97 0.3 SE 15 22 8 12 1011.1 1010.3 8.2
 
Date/Time
WST
Temp
°C
App
Temp
°C
Dew
Point
Rel
Hum
%
Delta-T
°C
Wind Press
QNH
hPa
Press
MSL
hPa
Rain
since 9 am
mm
Dir
 
Spd
km/h
Gust
km/h
Spd
kts
Gust
kts
27/11:30pm 16.2 14.9 15.7 97 0.3 SSE 17 26 9 14 1011.2 1010.4 8.2
27/11:00pm 16.3 15.0 15.8 97 0.3 SSE 17 22 9 12 1011.3 1010.5 8.2
27/10:30pm 16.2 14.9 15.7 97 0.3 SSE 17 30 9 16 1011.4 1010.6 8.2
27/10:00pm 16.4 15.1 15.8 96 0.4 S 17 26 9 14 1012.1 1011.4 8.2
27/09:30pm 16.4 15.5 15.8 96 0.4 SSW 15 24 8 13 1013.0 1012.3 8.2
27/09:00pm 16.5 16.2 15.5 94 0.6 SE 11 17 6 9 1013.2 1012.5 8.0
27/08:30pm 16.8 17.0 15.7 93 0.7 WNW 9 13 5 7 1014.4 1013.6 4.0
27/08:00pm 16.8 16.8 15.3 91 0.9 SSE 9 15 5 8 1013.3 1012.6 0.4
27/07:30pm 17.8 15.8 14.9 83 1.7 SE 19 26 10 14 1012.3 1011.6 0.4
27/07:00pm 20.1 19.0 13.1 64 4.0 SSE 11 15 6 8 1012.8 1012.1 0.4
27/06:30pm 21.2 17.8 13.6 62 4.4 ESE 24 35 13 19 1011.3 1010.5 0.4
27/06:00pm 22.9 19.2 13.9 57 5.3 E 26 37 14 20 1011.1 1010.3 0.4
27/05:30pm 25.0 21.0 11.9 44 7.6 E 24 33 13 18 1011.0 1010.2 0.4
27/05:00pm 26.4 22.6 13.5 45 7.7 E 26 39 14 21 1010.8 1010.0 0.4
27/04:30pm 26.9 23.5 13.6 44 8.0 E 24 33 13 18 1010.3 1009.6 0.4
27/04:00pm 27.7 24.6 13.3 41 8.6 E 22 37 12 20 1010.8 1010.0 0.4
27/03:30pm 27.5 24.7 13.1 41 8.6 E 20 28 11 15 1010.9 1010.1 0.4
27/03:00pm 27.9 25.1 13.1 40 8.8 E 20 32 11 17 1011.2 1010.4 0.4
27/02:30pm 26.1 23.0 12.2 42 8.1 ENE 20 39 11 21 1011.8 1011.0 0.4
27/02:00pm 26.0 22.6 13.8 47 7.3 ENE 24 32 13 17 1012.2 1011.5 0.4
27/01:30pm 26.6 23.7 14.0 46 7.6 E 22 33 12 18 1012.5 1011.8 0.4
27/01:00pm 26.1 22.8 12.9 44 7.8 ENE 22 32 12 17 1012.8 1012.1 0.4
27/12:30pm 25.8 23.7 12.3 43 7.9 E 15 20 8 11 1012.8 1012.1 0.4
27/12:00pm 24.8 23.2 12.7 47 7.1 ENE 13 19 7 10 1013.1 1012.4 0.4
27/11:30am 24.4 22.1 11.7 45 7.3 NE 15 20 8 11 1013.6 1012.9 0.4
27/11:00am 23.0 21.3 12.6 52 6.0 ENE 13 17 7 9 1013.8 1013.1 0.4
27/10:30am 21.7 20.3 14.4 63 4.3 NE 15 19 8 10 1014.2 1013.4 0.4
27/10:00am 23.6 22.5 12.0 48 6.7 NE 9 15 5 8 1014.6 1013.8 0.2
27/09:30am 20.8 20.5 13.3 62 4.4 NNW 7 13 4 7 1015.0 1014.3 0.0
27/09:00am 20.9 19.9 12.3 58 4.9 NNE 9 15 5 8 1014.6 1013.8 0.6
27/08:30am 21.7 18.8 11.1 51 5.9 NE 17 26 9 14 1014.2 1013.4 0.6
27/08:00am 22.0 18.3 10.2 47 6.5 NNE 20 30 11 16 1014.5 1013.7 0.6
27/07:30am 21.9 19.2 10.4 48 6.4 NE 15 20 8 11 1014.5 1013.7 0.6
27/07:00am 21.5 18.7 10.0 48 6.3 N 15 20 8 11 1014.4 1013.6 0.6
27/06:30am 20.5 18.9 11.4 56 5.1 NNE 11 15 6 8 1013.6 1012.9 0.6
27/06:00am 20.0 16.6 11.2 57 4.9 NE 20 30 11 16 1013.4 1012.7 0.6
27/05:30am 19.7 15.9 11.2 58 4.7 NE 22 33 12 18 1013.1 1012.4 0.6
27/05:00am 19.7 16.0 11.5 59 4.6 NE 22 35 12 19 1012.8 1012.1 0.6
27/04:30am 17.1 14.7 12.8 76 2.4 ENE 17 22 9 12 1012.9 1012.2 0.4
27/04:00am 18.8 15.9 11.1 61 4.3 ENE 17 22 9 12 1013.1 1012.4 0.4
27/03:30am 18.2 15.7 12.2 68 3.4 ENE 17 20 9 11 1013.2 1012.5 0.4
27/03:00am 17.7 15.8 13.0 74 2.7 NE 15 19 8 10 1013.3 1012.6 0.4
27/02:30am 17.2 15.9 13.7 80 2.0 ENE 13 17 7 9 1013.6 1012.9 0.4
27/02:00am 16.6 15.1 14.2 86 1.4 E 15 17 8 9 1013.9 1013.2 0.4
27/01:30am 16.8 16.9 14.4 86 1.4 NE 7 11 4 6 1014.9 1014.2 0.4
27/01:00am 16.2 16.5 14.4 89 1.0 N 6 9 3 5 1015.6 1014.9 0.0
27/12:30am 16.6 16.2 14.2 86 1.4 E 9 15 5 8 1014.9 1014.2 0.0
27/12:00am 16.6 14.3 14.1 85 1.4 E 19 24 10 13 1013.8 1013.1 0.0
 
Date/Time
WST
Temp
°C
App
Temp
°C
Dew
Point
Rel
Hum
%
Delta-T
°C
Wind Press
QNH
hPa
Press
MSL
hPa
Rain
since 9 am
mm
Dir
 
Spd
km/h
Gust
km/h
Spd
kts
Gust
kts
26/11:30pm 16.5 14.2 14.2 86 1.3 E 19 24 10 13 1013.7 1013.0 0.0
26/11:00pm 16.6 14.1 14.2 86 1.4 E 20 28 11 15 1013.9 1013.2 0.0
26/10:30pm 16.6 14.1 14.2 86 1.4 E 20 28 11 15 1014.7 1013.9 0.0
26/10:00pm 16.7 13.9 14.2 85 1.4 E 22 32 12 17 1014.8 1014.0 0.0
26/09:30pm 16.9 14.4 14.0 83 1.7 E 20 28 11 15 1015.5 1014.8 0.0
26/09:00pm 16.6 14.1 14.1 85 1.4 E 20 30 11 16 1015.3 1014.6 0.0
26/08:30pm 16.7 13.5 14.2 85 1.4 E 24 33 13 18 1014.9 1014.2 0.0
26/08:00pm 16.8 13.5 14.1 84 1.6 E 24 33 13 18 1014.8 1014.0 0.0
26/07:30pm 17.2 13.1 13.9 81 1.9 E 28 35 15 19 1014.6 1013.8 0.0
26/07:09pm 17.7 13.1 13.6 77 2.4 E 30 48 16 26 1014.4 1013.6 0.0
26/07:00pm 17.9 13.0 13.6 76 2.5 E 32 48 17 26 1014.4 1013.6 0.0
26/06:30pm 18.7 13.6 13.6 72 2.9 E 33 46 18 25 1014.3 1013.5 0.0
26/06:00pm 20.0 14.4 13.2 65 3.9 ESE 35 46 19 25 1014.2 1013.4 0.0
26/05:30pm 21.6 16.0 13.2 59 4.9 E 35 54 19 29 1014.1 1013.3 0.0
26/05:00pm 21.9 16.2 13.0 57 5.2 E 35 48 19 26 1013.9 1013.2 0.0
26/04:30pm 23.0 17.2 12.6 52 6.0 E 35 46 19 25 1013.8 1013.1 0.0
26/04:05pm 24.8 19.5 12.4 46 7.2 E 32 50 17 27 1013.9 1013.2 0.0
26/04:00pm 24.9 19.4 12.5 46 7.2 ESE 33 50 18 27 1013.9 1013.2 0.0
26/03:30pm 25.7 19.8 12.5 44 7.7 E 35 44 19 24 1014.2 1013.4 0.0
26/03:00pm 26.9 21.7 12.9 42 8.3 ESE 32 44 17 24 1014.5 1013.7 0.0
26/02:30pm 26.2 20.7 12.6 43 8.0 E 33 48 18 26 1014.9 1014.2 0.0
26/02:00pm 27.5 22.1 12.3 39 8.9 E 32 43 17 23 1015.0 1014.3 0.0
26/01:30pm 27.1 22.1 12.3 39 8.7 ESE 30 44 16 24 1015.2 1014.5 0.0
26/01:00pm 27.5 22.7 11.5 37 9.3 E 28 39 15 21 1015.7 1015.0 0.0
26/12:30pm 27.8 21.9 10.5 34 9.9 E 32 50 17 27 1016.1 1015.4 0.0
26/12:20pm 28.3 22.5 8.1 28 11.1 ENE 28 46 15 25 1016.3 1015.6 0.0
26/12:00pm 27.4 21.4 8.8 31 10.3 E 30 39 16 21 1016.5 1015.8 0.0
26/11:30am 25.9 20.3 8.8 34 9.4 ENE 28 39 15 21 1017.1 1016.4 0.0
26/11:00am 25.8 20.2 8.8 34 9.3 ENE 28 59 15 32 1017.7 1017.0 0.0
26/10:50am 25.6 19.8 8.1 33 9.5 E 28 46 15 25 1018.0 1017.3 0.0
26/10:30am 25.2 20.5 9.1 36 8.9 ENE 24 41 13 22 1018.4 1017.7 0.0
26/10:00am 24.0 19.6 8.8 38 8.3 NE 22 33 12 18 1019.0 1018.3 0.0
26/09:30am 23.1 18.4 9.1 41 7.6 ENE 24 35 13 19 1019.4 1018.7 0.0
26/09:00am 21.5 16.8 9.1 45 6.7 ENE 24 35 13 19 1019.8 1019.1 0.0

Other Formats:

Comma delimited format used in spreadsheet applications
http://www.bom.gov.au/fwo/IDW60801/IDW60801.95636.axf

JavaScript Object Notation format (JSON) in row-major order
http://www.bom.gov.au/fwo/IDW60801/IDW60801.95636.json